Flight Track Log - Related Links

Times and Time Zones

All times are in EDT time to prevent confusion due to time zone crossing. See the ASQ4209 flight status page for this flight to view local times or setup timezone preferences in your user account.

Time Position Orientation Groundspeed Altitude Reporting Facility
EDT Latitude Longitude Course Direction KTS MPH feet Rate Location/Type
Fri 08:08:28 PM 30.5750 -96.3581 81° East 156 180 900  Level Houston Center
Fri 08:10:06 PM 30.5028 -96.2958 143° Southeast 253 291 5,100 1,964 Climbing Houston Center
Fri 08:11:00 PM 30.5353 -96.2726 77° East  Level Estimated
Fri 08:11:13 PM 30.4444 -96.2492 145° Southeast 240 276 6,300  Level Houston Center
Fri 08:12:00 PM 30.5564 -96.2452 48° Northeast  Level FlightAware Approximate
Fri 08:12:02 PM 30.3947 -96.2086 145° Southeast 257 296 7,600  Level Houston Center
Fri 08:13:00 PM 30.5201 -96.1873 81° East  Level Estimated
Fri 08:13:03 PM 30.3361 -96.1619 145° Southeast 262 302 8,000  Level Houston Center
Fri 08:14:04 PM 30.2731 -96.1111 145° Southeast 264 304 8,000  Level Houston Center
Fri 08:14:19 PM 30.2644 -96.1014 136° Southeast 266 306 8,000  Level Houston Center
Fri 08:15:04 PM 30.2164 -96.0619 145° Southeast 265 305 8,000  Level Houston Center
Fri 08:15:21 PM 30.2050 -96.0519 143° Southeast 263 303 8,000  Level Houston Center
Fri 08:16:05 PM 30.1728 -95.9922 122° Southeast 263 303 8,000  Level Houston Center
Fri 08:16:23 PM 30.1656 -95.9756 117° Southeast 261 300 8,000  Level Houston Center
Fri 08:17:12 PM 30.1319 -95.9097 121° Southeast 264 304 8,000 -341 Level Houston Center
Fri 08:18:26 PM 30.0944 -95.8281 118° Southeast 262 302 7,300 -879 Descending Houston Center
Fri 08:19:08 PM 30.0672 -95.7700 118° Southeast 250 288 6,300 -1,161 Descending Houston Center
Fri 08:19:28 PM 30.0622 -95.7578 115° Southeast 252 290 6,100 -1,164 Descending Houston Center
Fri 08:20:15 PM 30.0325 -95.6872 116° Southeast 255 293 5,000 -1,355 Descending Houston Center
Fri 08:20:30 PM 30.0294 -95.6700 102° East 247 284 4,700 -935 Descending Houston Center
Fri 08:21:32 PM 30.0081 -95.5931 108° East 249 287 3,800 -950 Descending Houston Center
Fri 08:22:11 PM 29.9925 -95.5425 110° East 244 281 3,100 -1,065 Descending Houston Center
Fri 08:22:34 PM 29.9919 -95.5178 91° East 247 284 2,700 -1,043 Descending Houston Center

Login

Don't have an account? Register now (free) for customized features, flight alerts, and more!